Time;durP1;ratioP1;P1;durP2;ratioP2;P2;SDS_P1;SDS_P2;PMS_P1;PMS_P2;Temp;Humidity;BMP_temperature;BMP_pressure;BME280_temperature;BME280_humidity;BME280_pressure;Samples;Min_cycle;Max_cycle;Signal;HPM_P1;HPM_P2
2023/08/19 00:01:44;;;;;;;0.30;0.30;;;27.80;62.80;;;28.46;46.92;95122.22;5097400;28;20278;-48
2023/08/19 00:04:11;;;;;;;0.30;0.30;;;27.80;62.80;;;28.43;47.34;95119.00;5097251;28;20231;-46
2023/08/19 00:06:40;;;;;;;0.32;0.32;;;27.80;62.80;;;28.42;46.88;95122.03;5098072;28;20200;-46
2023/08/19 00:09:09;;;;;;;0.30;0.30;;;27.80;62.80;;;28.41;46.76;95126.59;5097071;28;20566;-46
2023/08/19 00:11:38;;;;;;;0.20;0.20;;;27.80;62.90;;;28.41;47.30;95123.91;5097313;28;20615;-46
2023/08/19 00:14:06;;;;;;;0.30;0.30;;;27.80;63.00;;;28.38;46.87;95116.44;5096484;28;20301;-45
2023/08/19 00:16:35;;;;;;;0.30;0.30;;;27.80;62.80;;;28.36;46.90;95115.13;5097231;28;20199;-46
2023/08/19 00:19:02;;;;;;;0.30;0.30;;;27.70;62.80;;;28.34;47.35;95117.31;5095676;28;20333;-45
2023/08/19 00:21:29;;;;;;;0.30;0.30;;;27.70;62.80;;;28.31;46.93;95110.63;5095928;28;20655;-46
2023/08/19 00:23:57;;;;;;;0.30;0.30;;;27.70;62.80;;;28.30;47.11;95111.72;5096872;28;20207;-45
2023/08/19 00:26:25;;;;;;;0.30;0.30;;;27.70;62.80;;;28.27;47.06;95113.13;5097081;28;20282;-46
2023/08/19 00:28:52;;;;;;;0.30;0.30;;;27.70;62.90;;;28.23;47.04;95117.50;5096031;28;20537;-45
2023/08/19 00:31:19;;;;;;;0.25;0.25;;;27.70;62.90;;;28.23;47.26;95119.41;5096593;28;20250;-46
2023/08/19 00:33:47;;;;;;;0.32;0.32;;;27.60;63.00;;;28.24;47.12;95129.13;5096953;28;20196;-46
2023/08/19 00:36:14;;;;;;;0.30;0.30;;;27.60;63.10;;;28.24;47.34;95129.13;5095658;28;20198;-45
2023/08/19 00:38:41;;;;;;;0.20;0.20;;;27.60;63.00;;;28.25;47.57;95130.72;5096617;28;20252;-45
2023/08/19 00:41:08;;;;;;;0.30;0.30;;;27.60;63.10;;;28.24;47.54;95129.13;5096541;28;20713;-45
2023/08/19 00:43:37;;;;;;;0.30;0.30;;;27.60;63.10;;;28.23;47.62;95127.50;5096728;28;20595;-45
2023/08/19 00:46:07;;;;;;;0.30;0.30;;;27.60;63.90;;;28.23;47.29;95130.22;5096437;28;20201;-46
2023/08/19 00:48:35;;;;;;;0.30;0.30;;;27.60;62.90;;;28.22;47.23;95136.69;5095608;28;20206;-45
2023/08/19 00:51:05;;;;;;;0.30;0.30;;;27.60;62.90;;;28.20;47.35;95123.50;5096240;28;20273;-46
2023/08/19 00:53:34;;;;;;;0.30;0.30;;;27.60;63.00;;;28.22;47.57;95132.13;5095188;28;20221;-46
2023/08/19 00:56:03;;;;;;;0.30;0.30;;;27.60;63.10;;;28.23;47.59;95120.22;5096236;28;20235;-49
2023/08/19 00:58:31;;;;;;;0.30;0.30;;;27.60;63.10;;;28.24;47.57;95123.72;5096286;28;20216;-45
2023/08/19 01:00:58;;;;;;;0.30;0.30;;;27.60;62.90;;;28.22;47.08;95123.22;5096167;28;20209;-45
2023/08/19 01:03:25;;;;;;;0.30;0.30;;;27.60;62.90;;;28.18;46.95;95120.31;5095167;28;20214;-46
2023/08/19 01:06:20;;;;;;;0.25;0.25;;;27.60;62.80;;;28.13;47.40;95125.81;5096288;28;20586;-45
2023/08/19 01:09:23;;;;;;;0.30;0.30;;;27.60;62.80;;;28.06;47.16;95123.53;5095919;28;20184;-46
2023/08/19 01:12:18;;;;;;;0.30;0.30;;;27.50;62.70;;;28.03;47.00;95120.59;5089409;28;20232;-45
2023/08/19 01:15:17;;;;;;;0.30;0.30;;;27.50;62.60;;;28.00;47.46;95130.03;5095965;28;20184;-46
2023/08/19 01:17:48;;;;;;;0.30;0.30;;;27.50;62.80;;;28.00;47.14;95123.88;5094705;28;20596;-49
2023/08/19 01:20:18;;;;;;;0.30;0.30;;;27.40;62.70;;;27.98;47.21;95115.25;5095703;28;20181;-50
2023/08/19 01:23:06;;;;;;;0.40;0.40;;;27.50;63.80;;;27.96;47.44;95121.78;5095776;28;20285;-45
2023/08/19 01:25:33;;;;;;;0.30;0.30;;;27.40;63.00;;;27.98;47.52;95120.66;5078014;28;20204;-46
2023/08/19 01:28:04;;;;;;;0.30;0.30;;;27.40;63.00;;;27.98;47.47;95126.88;5095709;28;20288;-45
2023/08/19 01:30:33;;;;;;;0.30;0.30;;;27.40;63.10;;;28.00;47.50;95129.25;5095489;28;20228;-46
2023/08/19 01:33:04;;;;;;;0.30;0.30;;;27.40;63.20;;;28.01;47.64;95130.88;5095637;28;20200;-45
2023/08/19 01:35:58;;;;;;;0.30;0.30;;;27.40;63.20;;;27.99;47.21;95116.88;5094583;28;20599;-45
2023/08/19 01:38:52;;;;;;;0.30;0.30;;;27.40;63.10;;;27.92;47.41;95125.38;5085029;28;20290;-43
2023/08/19 01:41:22;;;;;;;0.20;0.20;;;27.40;62.90;;;27.92;47.15;95128.06;5094493;28;20516;-43
2023/08/19 01:43:50;;;;;;;0.40;0.40;;;27.40;62.90;;;27.90;47.30;95128.34;5095471;28;20197;-42
2023/08/19 01:46:17;;;;;;;0.30;0.30;;;27.40;62.80;;;27.89;47.01;95117.84;5094521;28;20190;-43
2023/08/19 01:48:44;;;;;;;0.40;0.40;;;27.40;62.80;;;27.87;47.10;95126.25;5094330;28;20625;-42
2023/08/19 01:51:12;;;;;;;0.30;0.30;;;27.30;62.80;;;27.83;47.65;95129.81;5061113;28;20256;-43
2023/08/19 01:53:39;;;;;;;0.30;0.30;;;27.30;62.80;;;27.80;47.58;95123.94;5095273;28;20283;-43
2023/08/19 01:56:06;;;;;;;0.30;0.30;;;27.20;62.80;;;27.79;47.61;95124.22;5094602;28;20207;-42
2023/08/19 01:58:34;;;;;;;0.30;0.30;;;27.20;62.90;;;27.79;47.16;95135.81;5094078;28;20709;-43
2023/08/19 02:01:01;;;;;;;0.30;0.30;;;27.20;63.10;;;27.81;47.93;95132.81;5094238;28;20637;-42
2023/08/19 02:03:28;;;;;;;0.30;0.30;;;27.20;63.20;;;27.84;47.77;95136.81;5093993;28;20643;-43
2023/08/19 02:05:56;;;;;;;0.35;0.35;;;27.20;63.30;;;27.86;47.33;95138.13;5094140;28;20670;-42
2023/08/19 02:08:23;;;;;;;0.30;0.30;;;27.20;63.20;;;27.85;47.89;95139.22;5078198;28;20201;-43
2023/08/19 02:10:50;;;;;;;0.40;0.40;;;27.20;63.20;;;27.85;47.23;95133.81;5095040;28;20228;-42
2023/08/19 02:13:17;;;;;;;0.30;0.30;;;27.20;63.10;;;27.84;47.28;95142.22;5095064;28;20189;-42
2023/08/19 02:15:44;;;;;;;0.28;0.28;;;27.20;63.20;;;27.82;47.96;95137.13;5095020;28;20192;-43
2023/08/19 02:18:11;;;;;;;0.20;0.20;;;27.20;63.20;;;27.84;47.97;95137.59;5093902;28;20234;-43
2023/08/19 02:20:38;;;;;;;0.30;0.30;;;27.20;63.20;;;27.86;47.90;95143.50;5093710;28;20198;-43
2023/08/19 02:23:06;;;;;;;0.30;0.30;;;27.20;63.30;;;27.86;47.28;95140.81;5077404;28;20208;-43
2023/08/19 02:25:33;;;;;;;0.30;0.30;;;27.20;63.30;;;27.86;47.54;95142.72;5095181;28;20239;-43
2023/08/19 02:28:00;;;;;;;0.30;0.30;;;27.20;63.20;;;27.83;47.25;95141.44;5094011;28;20232;-45
2023/08/19 02:30:27;;;;;;;0.45;0.45;;;27.20;63.10;;;27.80;47.20;95137.41;5094654;28;20204;-45
2023/08/19 02:32:54;;;;;;;0.30;0.30;;;27.20;63.10;;;27.79;47.86;95133.13;5093881;28;20608;-45
2023/08/19 02:35:22;;;;;;;0.30;0.30;;;27.20;63.20;;;27.79;47.62;95140.41;5094839;28;20521;-45
2023/08/19 02:37:49;;;;;;;0.20;0.20;;;27.20;63.10;;;27.78;47.36;95138.78;5093886;28;20299;-46
2023/08/19 02:40:16;;;;;;;0.30;0.30;;;27.20;63.20;;;27.76;47.94;95136.41;5094872;28;20694;-45
2023/08/19 02:42:44;;;;;;;0.30;0.30;;;27.20;63.10;;;27.77;47.26;95145.28;5094788;28;20206;-45
2023/08/19 02:45:11;;;;;;;0.40;0.40;;;27.20;63.20;;;27.76;47.42;95141.78;5094758;28;20291;-45
2023/08/19 02:47:38;;;;;;;0.30;0.30;;;27.20;63.30;;;27.76;47.45;95141.00;5093806;28;20196;-44
2023/08/19 02:50:06;;;;;;;0.30;0.30;;;27.20;63.30;;;27.75;47.99;95142.88;5077121;28;20236;-46
2023/08/19 02:52:34;;;;;;;0.30;0.30;;;27.20;63.20;;;27.73;47.22;95142.38;5093655;28;20260;-47
2023/08/19 02:55:01;;;;;;;0.30;0.30;;;27.20;63.10;;;27.70;47.48;95140.28;5094965;28;20200;-44
2023/08/19 02:57:28;;;;;;;0.30;0.30;;;27.20;63.20;;;27.71;48.02;95141.06;5093653;28;20673;-45
2023/08/19 02:59:56;;;;;;;0.30;0.30;;;27.20;63.20;;;27.69;47.33;95133.28;5077038;28;20209;-44
2023/08/19 03:02:23;;;;;;;0.30;0.30;;;27.20;63.30;;;27.66;47.41;95125.81;5094570;28;20252;-46
2023/08/19 03:04:50;;;;;;;0.35;0.35;;;27.10;63.20;;;27.69;48.00;95127.91;5093672;28;20629;-45
2023/08/19 03:07:17;;;;;;;0.30;0.30;;;27.10;63.20;;;27.69;48.05;95135.19;5093781;28;20203;-46
2023/08/19 03:09:44;;;;;;;0.20;0.20;;;27.10;63.20;;;27.67;48.17;95135.47;5093555;28;20213;-44
2023/08/19 03:12:11;;;;;;;0.20;0.20;;;27.10;63.30;;;27.63;47.57;95129.09;5093509;28;20267;-45
2023/08/19 03:14:39;;;;;;;0.25;0.25;;;27.10;63.20;;;27.58;47.42;95137.25;5094349;28;20246;-47
2023/08/19 03:17:06;;;;;;;0.30;0.30;;;27.10;63.10;;;27.55;47.63;95127.06;5097519;28;20633;-45
2023/08/19 03:19:33;;;;;;;0.30;0.30;;;27.10;63.10;;;27.52;47.82;95136.53;5097067;28;20378;-46
2023/08/19 03:22:00;;;;;;;0.22;0.22;;;27.00;63.10;;;27.51;48.01;95142.22;5098134;28;20336;-47
2023/08/19 03:24:28;;;;;;;0.40;0.40;;;27.00;63.20;;;27.52;47.97;95138.44;5098184;28;20291;-45
2023/08/19 03:26:57;;;;;;;0.30;0.30;;;27.00;63.30;;;27.51;48.06;95134.94;5097158;28;20279;-45
2023/08/19 03:29:26;;;;;;;0.35;0.35;;;27.00;63.40;;;27.54;47.81;95138.94;5097021;28;20281;-45
2023/08/19 03:31:54;;;;;;;0.30;0.30;;;27.00;63.50;;;27.54;48.24;95128.97;5096891;28;20235;-45
2023/08/19 03:34:21;;;;;;;0.30;0.30;;;27.00;63.50;;;27.55;48.09;95130.56;5096802;28;20584;-44
2023/08/19 03:36:50;;;;;;;0.20;0.20;;;27.00;63.40;;;27.53;47.88;95126.56;5096738;28;20226;-42
2023/08/19 03:39:17;;;;;;;0.35;0.35;;;27.00;63.40;;;27.51;48.13;95126.84;5097813;28;20191;-42
2023/08/19 03:41:44;;;;;;;0.30;0.30;;;26.90;63.40;;;27.50;48.33;95122.53;5080029;28;20336;-42
2023/08/19 03:44:12;;;;;;;0.20;0.20;;;27.00;63.50;;;27.50;48.18;95132.53;5097022;28;20282;-42
2023/08/19 03:46:39;;;;;;;0.40;0.40;;;27.00;63.50;;;27.49;47.78;95131.75;5096672;28;20210;-42
2023/08/19 03:49:06;;;;;;;0.30;0.30;;;27.00;63.50;;;27.47;48.37;95131.25;5097910;28;20201;-45
2023/08/19 03:51:34;;;;;;;0.20;0.20;;;27.00;63.50;;;27.47;47.97;95137.41;5096518;28;20220;-44
2023/08/19 03:54:01;;;;;;;0.20;0.20;;;27.00;63.50;;;27.47;47.86;95134.72;5097459;28;20253;-45
2023/08/19 03:56:28;;;;;;;0.38;0.38;;;27.00;63.50;;;27.47;47.93;95137.41;5097302;28;20250;-44
2023/08/19 03:58:56;;;;;;;0.30;0.30;;;26.90;63.40;;;27.45;48.35;95138.81;5080058;28;20562;-44
2023/08/19 04:01:23;;;;;;;0.30;0.30;;;26.90;63.40;;;27.42;47.89;95134.03;5097332;28;20191;-43
2023/08/19 04:03:51;;;;;;;0.32;0.32;;;26.90;63.50;;;27.41;48.01;95135.09;5096288;28;20564;-44
2023/08/19 04:06:18;;;;;;;0.30;0.30;;;26.90;63.50;;;27.42;48.30;95139.41;5097153;28;20234;-43
2023/08/19 04:08:45;;;;;;;0.30;0.30;;;26.90;63.60;;;27.42;48.02;95142.09;5097170;28;20635;-43
2023/08/19 04:11:12;;;;;;;0.30;0.30;;;26.90;63.60;;;27.43;48.37;95147.19;5097324;28;20216;-42
2023/08/19 04:13:42;;;;;;;0.30;0.30;;;26.90;63.60;;;27.44;48.52;95148.78;5096124;28;20216;-45
2023/08/19 04:16:09;;;;;;;0.30;0.30;;;26.90;63.70;;;27.47;48.29;95155.47;5096908;28;20248;-45
2023/08/19 04:18:37;;;;;;;0.30;0.30;;;26.90;63.70;;;27.47;48.50;95156.28;5079269;28;20226;-45
2023/08/19 04:21:06;;;;;;;0.30;0.30;;;26.90;63.70;;;27.48;47.82;95155.19;5096024;28;20233;-45
2023/08/19 04:23:34;;;;;;;0.30;0.30;;;26.90;63.60;;;27.48;48.05;95152.47;5095896;28;20195;-45
2023/08/19 04:26:03;;;;;;;0.20;0.20;;;26.90;63.70;;;27.50;48.04;95154.09;5095819;28;20219;-44
2023/08/19 04:28:30;;;;;;;0.30;0.30;;;26.90;63.60;;;27.49;47.93;95158.69;5096105;28;20639;-44
2023/08/19 04:31:06;;;;;;;0.30;0.30;;;27.00;63.70;;;27.51;48.45;95156.47;5095679;28;20626;-46
2023/08/19 04:33:46;;;;;;;0.30;0.30;;;27.00;63.70;;;27.50;48.01;95160.25;5096106;28;20259;-45
2023/08/19 04:36:14;;;;;;;0.30;0.30;;;27.00;63.70;;;27.47;48.58;95158.19;5095536;28;20232;-46
2023/08/19 04:38:42;;;;;;;0.30;0.30;;;27.00;63.70;;;27.45;48.07;95157.66;5079005;28;20617;-44
2023/08/19 04:41:10;;;;;;;0.30;0.30;;;27.00;63.70;;;27.43;48.76;95166.03;5095606;28;20253;-45
2023/08/19 04:43:42;;;;;;;0.30;0.30;;;26.90;63.70;;;27.40;48.30;95163.88;5095585;28;20208;-45
2023/08/19 04:46:10;;;;;;;0.30;0.30;;;26.90;63.60;;;27.38;48.51;95158.00;5095327;28;20203;-45
2023/08/19 04:48:38;;;;;;;0.30;0.30;;;26.90;63.70;;;27.36;48.79;95157.50;5096697;28;20183;-47
2023/08/19 04:51:06;;;;;;;0.30;0.30;;;26.90;63.80;;;27.34;48.47;95156.97;5095713;28;20207;-44
2023/08/19 04:53:33;;;;;;;0.30;0.30;;;26.90;63.80;;;27.33;48.60;95166.97;5095360;28;20195;-43
2023/08/19 04:56:02;;;;;;;0.30;0.30;;;26.90;63.80;;;27.32;48.52;95159.97;5096264;28;20689;-43
2023/08/19 04:58:31;;;;;;;0.30;0.30;;;26.90;63.90;;;27.34;48.92;95165.06;5095535;28;20216;-42
2023/08/19 05:01:00;;;;;;;0.30;0.30;;;26.90;63.90;;;27.36;48.75;95167.47;5095279;28;20219;-44
2023/08/19 05:03:29;;;;;;;0.30;0.30;;;26.90;64.00;;;27.37;48.66;95164.50;5095121;28;20207;-45
2023/08/19 05:05:56;;;;;;;0.30;0.30;;;26.90;64.00;;;27.40;48.98;95166.59;5095034;28;20244;-46
2023/08/19 05:08:31;;;;;;;0.30;0.30;;;26.90;64.00;;;27.42;49.09;95169.81;5079411;28;20201;-46
2023/08/19 05:10:59;;;;;;;0.30;0.30;;;26.90;64.10;;;27.45;49.25;95169.25;5095084;28;20207;-44
2023/08/19 05:13:27;;;;;;;0.30;0.30;;;26.90;64.10;;;27.46;48.79;95168.13;5095313;28;20250;-45
2023/08/19 05:15:54;;;;;;;0.20;0.20;;;26.90;64.20;;;27.50;48.70;95164.88;5094854;28;20200;-42
2023/08/19 05:18:21;;;;;;;0.35;0.35;;;26.90;64.10;;;27.52;49.13;95168.06;5094960;28;20308;-42
2023/08/19 05:20:48;;;;;;;0.30;0.30;;;26.90;64.20;;;27.53;49.21;95170.47;5095154;28;20196;-45
2023/08/19 05:23:15;;;;;;;0.28;0.28;;;27.00;64.30;;;27.54;48.77;95180.16;5094903;28;20239;-45
2023/08/19 05:25:43;;;;;;;0.20;0.20;;;27.00;64.20;;;27.57;49.26;95184.16;5094640;28;20212;-42
2023/08/19 05:28:11;;;;;;;0.30;0.30;;;27.00;64.20;;;27.58;48.89;95178.47;5095926;28;20228;-43
2023/08/19 05:30:38;;;;;;;0.28;0.28;;;27.10;65.20;;;27.59;48.77;95180.06;5095740;28;20260;-46
2023/08/19 05:33:06;;;;;;;0.30;0.30;;;27.00;64.30;;;27.62;49.34;95186.75;5095827;28;20246;-42
2023/08/19 05:35:33;;;;;;;0.30;0.30;;;27.10;64.30;;;27.64;49.43;95187.28;5095680;28;20193;-42
2023/08/19 05:38:00;;;;;;;0.30;0.30;;;27.10;64.30;;;27.68;49.00;95187.50;5095241;28;20706;-42
2023/08/19 05:40:27;;;;;;;0.20;0.20;;;27.10;64.30;;;27.69;49.10;95189.88;5095715;28;20226;-42
2023/08/19 05:42:54;;;;;;;0.22;0.22;;;27.20;64.30;;;27.72;49.47;95188.50;5095465;28;20207;-42
2023/08/19 05:45:21;;;;;;;0.30;0.30;;;27.20;64.30;;;27.73;49.13;95190.09;5095264;28;20205;-42
2023/08/19 05:47:48;;;;;;;0.30;0.30;;;27.20;64.30;;;27.74;49.09;95194.41;5095652;28;20232;-45
2023/08/19 05:50:16;;;;;;;0.20;0.20;;;27.20;64.30;;;27.75;49.38;95199.47;5095875;28;20196;-47
2023/08/19 05:52:43;;;;;;;0.20;0.20;;;27.20;64.30;;;27.77;49.14;95197.31;5095491;28;20217;-46
2023/08/19 05:55:10;;;;;;;0.30;0.30;;;27.30;65.30;;;27.79;49.31;95202.38;5095116;28;20195;-43
2023/08/19 05:57:37;;;;;;;0.30;0.30;;;27.30;64.30;;;27.82;49.42;95211.78;5094257;28;20205;-45
2023/08/19 06:00:06;;;;;;;0.30;0.30;;;27.40;64.30;;;27.82;49.53;95203.69;5095631;28;20274;-42
2023/08/19 06:02:38;;;;;;;0.30;0.30;;;27.40;64.40;;;27.83;48.89;95200.72;5095496;28;20220;-42
2023/08/19 06:05:07;;;;;;;0.30;0.30;;;27.40;64.30;;;27.85;49.51;95208.50;5095004;28;20202;-42
2023/08/19 06:07:34;;;;;;;0.30;0.30;;;27.40;64.40;;;27.86;49.11;95212.81;5095417;28;20549;-43
2023/08/19 06:10:01;;;;;;;0.30;0.30;;;27.40;64.40;;;27.87;49.05;95209.00;5095074;28;20248;-43
2023/08/19 06:12:28;;;;;;;0.20;0.20;;;27.40;64.30;;;27.89;49.61;95217.59;5095582;28;20213;-42
2023/08/19 06:14:56;;;;;;;0.32;0.32;;;27.40;64.30;;;27.90;49.31;95219.19;5095034;28;20231;-42
2023/08/19 06:17:22;;;;;;;0.30;0.30;;;27.40;64.30;;;27.90;49.25;95213.81;5094883;28;20263;-42
2023/08/19 06:19:50;;;;;;;0.30;0.30;;;27.50;64.30;;;27.91;49.32;95218.91;5095039;28;20275;-45
2023/08/19 06:22:18;;;;;;;0.30;0.30;;;27.40;64.30;;;27.91;48.97;95210.03;5094290;28;20198;-48
2023/08/19 06:24:45;;;;;;;0.30;0.30;;;27.50;64.30;;;27.93;48.99;95221.31;5095749;28;20220;-42
2023/08/19 06:27:11;;;;;;;0.30;0.30;;;27.50;64.40;;;27.95;49.64;95221.81;5094931;28;20283;-42
2023/08/19 06:29:39;;;;;;;0.30;0.30;;;27.50;64.40;;;27.96;49.15;95216.16;5094923;28;20723;-43
2023/08/19 06:32:07;;;;;;;0.30;0.30;;;27.50;64.40;;;27.98;49.01;95221.22;5093988;28;20730;-45
2023/08/19 06:34:35;;;;;;;0.30;0.30;;;27.50;64.40;;;27.99;49.14;95230.94;5095150;28;20229;-44
2023/08/19 06:37:04;;;;;;;0.30;0.30;;;27.50;64.40;;;28.01;49.27;95228.72;5095171;28;20641;-45
2023/08/19 06:39:34;;;;;;;0.30;0.30;;;27.50;64.50;;;28.01;49.72;95222.53;5095553;28;20601;-54
2023/08/19 06:42:04;;;;;;;0.30;0.30;;;27.50;64.40;;;28.03;49.60;95231.13;5094598;28;20610;-63
2023/08/19 06:44:34;;;;;;;0.30;0.30;;;27.50;64.40;;;28.03;49.41;95231.13;5094849;28;20203;-42
2023/08/19 06:47:03;;;;;;;0.40;0.40;;;27.60;64.50;;;28.04;49.76;95238.91;5094658;28;20207;-44
2023/08/19 06:49:31;;;;;;;0.30;0.30;;;27.60;64.50;;;28.07;49.54;95230.25;5093955;28;20209;-42
2023/08/19 06:51:59;;;;;;;0.30;0.30;;;27.60;64.50;;;28.07;49.69;95232.16;5097711;28;20220;-41
2023/08/19 06:54:26;;;;;;;0.20;0.20;;;27.60;64.50;;;28.09;49.26;95232.69;5098649;28;20229;-43
2023/08/19 06:57:06;;;;;;;0.30;0.30;;;27.60;64.50;;;28.08;48.97;95234.56;5098476;28;20187;-42
2023/08/19 06:59:41;;;;;;;0.30;0.30;;;27.60;64.60;;;28.11;49.47;95242.06;5098645;28;20181;-41
2023/08/19 07:02:09;;;;;;;0.30;0.30;;;27.60;64.60;;;28.12;49.90;95245.56;5098582;28;20180;-41
2023/08/19 07:04:37;;;;;;;0.38;0.38;;;27.60;64.50;;;28.14;49.66;95246.06;5097607;28;20284;-42
2023/08/19 07:07:05;;;;;;;0.30;0.30;;;27.70;64.50;;;28.16;49.56;95240.38;5097414;28;20204;-42
2023/08/19 07:09:34;;;;;;;0.30;0.30;;;27.60;64.60;;;28.16;49.60;95233.09;5097476;28;20684;-42
2023/08/19 07:12:02;;;;;;;0.30;0.30;;;27.70;64.60;;;28.18;49.81;95247.06;5097224;28;20226;-42
2023/08/19 07:14:30;;;;;;;0.30;0.30;;;27.70;64.60;;;28.19;49.36;95245.19;5098288;28;20696;-42
2023/08/19 07:17:00;;;;;;;0.20;0.20;;;27.70;64.60;;;28.22;49.88;95258.06;5097193;28;20196;-42
2023/08/19 07:19:34;;;;;;;0.30;0.30;;;27.70;64.60;;;28.23;49.63;95263.16;5097199;28;20254;-42
2023/08/19 07:22:02;;;;;;;0.20;0.20;;;27.80;64.70;;;28.24;49.89;95255.88;5098192;28;20202;-42
2023/08/19 07:24:31;;;;;;;0.30;0.30;;;27.70;64.50;;;28.25;49.61;95255.56;5098085;28;20188;-42
2023/08/19 07:27:03;;;;;;;0.20;0.20;;;27.80;64.60;;;28.27;49.95;95261.47;5098163;28;20519;-43
2023/08/19 07:29:31;;;;;;;0.20;0.20;;;27.80;64.60;;;28.29;49.62;95261.19;5098183;28;20618;-43
2023/08/19 07:31:58;;;;;;;0.30;0.30;;;27.80;64.60;;;28.32;49.33;95265.19;5098383;28;20191;-43
2023/08/19 07:34:25;;;;;;;0.30;0.30;;;27.80;64.50;;;28.32;49.27;95257.91;5097332;28;20184;-43
2023/08/19 07:36:52;;;;;;;0.30;0.30;;;27.80;64.60;;;28.33;49.27;95267.59;5097680;28;20191;-43
2023/08/19 07:39:20;;;;;;;0.30;0.30;;;27.90;64.70;;;28.36;49.92;95260.81;5097871;28;20278;-45
2023/08/19 07:41:47;;;;;;;0.30;0.30;;;27.80;64.60;;;28.37;49.28;95268.59;5097440;28;20194;-45
2023/08/19 07:44:14;;;;;;;0.30;0.30;;;27.80;64.60;;;28.39;49.81;95273.69;5097704;28;20210;-42
2023/08/19 07:46:41;;;;;;;0.28;0.28;;;27.90;64.60;;;28.41;49.46;95274.19;5079829;28;20215;-45
2023/08/19 07:49:09;;;;;;;0.30;0.30;;;27.90;64.70;;;28.41;49.78;95276.91;5097522;28;20222;-42
2023/08/19 07:51:38;;;;;;;0.30;0.30;;;27.90;64.60;;;28.44;49.77;95282.50;5097587;28;20267;-46
2023/08/19 07:54:05;;;;;;;0.20;0.20;;;28.00;64.70;;;28.45;49.18;95286.00;5096677;28;20656;-42
2023/08/19 07:56:32;;;;;;;0.20;0.20;;;28.00;64.60;;;28.49;49.24;95278.09;5097794;28;20218;-45
2023/08/19 07:58:59;;;;;;;0.30;0.30;;;28.00;64.60;;;28.49;49.39;95278.09;5097694;28;20198;-43
2023/08/19 08:01:26;;;;;;;0.30;0.30;;;28.00;64.70;;;28.51;49.53;95284.81;5097314;28;20200;-45
2023/08/19 08:03:53;;;;;;;0.30;0.30;;;28.00;64.60;;;28.51;49.79;95284.00;5097320;28;20621;-44
2023/08/19 08:06:21;;;;;;;0.30;0.30;;;28.00;64.60;;;28.53;49.56;95285.31;5097644;28;20276;-44
2023/08/19 08:08:48;;;;;;;0.30;0.30;;;28.00;64.70;;;28.53;49.64;95288.00;5097417;28;20203;-44
2023/08/19 08:11:16;;;;;;;0.30;0.30;;;28.00;64.70;;;28.54;49.24;95292.31;5097161;28;20191;-45
2023/08/19 08:13:43;;;;;;;0.38;0.38;;;28.10;64.70;;;28.56;49.84;95292.81;5097608;28;20208;-44
2023/08/19 08:16:10;;;;;;;0.30;0.30;;;28.00;64.60;;;28.55;49.79;95288.53;5097130;28;20190;-43
2023/08/19 08:18:37;;;;;;;0.30;0.30;;;28.10;64.80;;;28.58;49.84;95289.81;5097350;28;20708;-45
2023/08/19 08:21:04;;;;;;;0.20;0.20;;;28.10;64.70;;;28.60;49.54;95293.81;5105153;28;20207;-44
2023/08/19 08:23:32;;;;;;;0.22;0.22;;;28.10;64.70;;;28.64;49.91;95298.59;5117584;28;20251;-44
2023/08/19 08:25:59;;;;;;;0.20;0.20;;;28.10;64.70;;;28.64;49.88;95296.72;5117151;28;20276;-44
2023/08/19 08:28:27;;;;;;;0.22;0.22;;;28.10;64.70;;;28.65;49.97;95306.44;5115065;28;20209;-45
2023/08/19 08:30:54;;;;;;;0.30;0.30;;;28.10;64.70;;;28.67;49.66;95301.50;5117114;28;20262;-45
2023/08/19 08:33:22;;;;;;;0.30;0.30;;;28.20;65.70;;;28.68;49.48;95305.84;5117263;28;20295;-46
2023/08/19 08:35:49;;;;;;;0.30;0.30;;;28.10;64.80;;;28.69;49.91;95299.34;5117078;28;20203;-44
2023/08/19 08:38:16;;;;;;;0.30;0.30;;;28.20;64.80;;;28.71;49.57;95299.88;5117660;28;20280;-44
2023/08/19 08:40:43;;;;;;;0.30;0.30;;;28.20;64.80;;;28.73;49.28;95303.09;5117009;28;20186;-44
2023/08/19 08:43:12;;;;;;;0.30;0.30;;;28.20;64.70;;;28.77;49.25;95307.88;5116934;28;20705;-44
2023/08/19 08:45:41;;;;;;;0.22;0.22;;;28.20;64.80;;;28.78;49.94;95301.38;5116019;28;20194;-44
2023/08/19 08:48:11;;;;;;;0.30;0.30;;;28.20;64.80;;;28.80;50.02;95307.28;5113518;28;20197;-44
2023/08/19 08:50:42;;;;;;;0.32;0.32;;;28.30;64.80;;;28.81;49.80;95311.56;5116959;27;20188;-45
2023/08/19 08:53:12;;;;;;;0.30;0.30;;;28.30;64.80;;;28.83;49.53;95306.66;5115533;28;20213;-44
2023/08/19 08:55:39;;;;;;;0.30;0.30;;;28.30;64.80;;;28.83;50.04;95312.88;5117004;28;20241;-44
2023/08/19 08:58:06;;;;;;;0.30;0.30;;;28.30;64.80;;;28.85;50.02;95309.88;5116034;28;20279;-44
2023/08/19 09:00:33;;;;;;;0.30;0.30;;;28.30;64.70;;;28.86;49.46;95317.66;5115115;28;20300;-45
2023/08/19 09:03:03;;;;;;;0.30;0.30;;;28.30;64.70;;;28.87;49.71;95313.09;5115943;28;20600;-44
2023/08/19 09:05:31;;;;;;;0.30;0.30;;;28.30;64.60;;;28.89;49.30;95310.88;5114049;28;20290;-44
2023/08/19 09:07:59;;;;;;;0.30;0.30;;;28.30;64.60;;;28.90;49.38;95307.06;5113615;28;20629;-44
2023/08/19 09:10:28;;;;;;;0.20;0.20;;;28.40;64.60;;;28.91;49.88;95312.16;5116522;28;20187;-44
2023/08/19 09:12:59;;;;;;;0.20;0.20;;;28.40;64.60;;;28.92;49.22;95310.28;5103968;28;20289;-45
2023/08/19 09:15:29;;;;;;;0.30;0.30;;;28.40;64.50;;;28.96;49.83;95315.88;5095191;28;20190;-45
2023/08/19 09:17:58;;;;;;;0.30;0.30;;;28.40;64.50;;;28.97;49.15;95317.50;5096025;28;20639;-45
2023/08/19 09:20:25;;;;;;;0.30;0.30;;;28.40;64.50;;;28.98;49.67;95321.78;5095019;28;20242;-44
2023/08/19 09:22:52;;;;;;;0.30;0.30;;;28.40;64.50;;;29.00;49.04;95316.88;5115798;28;20201;-45
2023/08/19 09:25:20;;;;;;;0.30;0.30;;;28.40;64.40;;;29.01;49.46;95319.28;5116413;28;20228;-44
2023/08/19 09:27:51;;;;;;;0.30;0.30;;;28.40;64.40;;;29.02;49.12;95317.38;5116122;28;20193;-45
2023/08/19 09:30:19;;;;;;;0.30;0.30;;;28.40;64.30;;;29.03;49.03;95314.38;5116321;28;20215;-45
2023/08/19 09:32:46;;;;;;;0.35;0.35;;;28.40;64.40;;;29.06;49.25;95321.06;5115921;28;20218;-45
2023/08/19 09:35:16;;;;;;;0.30;0.30;;;28.50;64.40;;;29.05;49.37;95317.59;5114814;28;20212;-44
2023/08/19 09:37:44;;;;;;;0.30;0.30;;;28.50;64.40;;;29.07;49.13;95319.97;5115907;28;20195;-45
2023/08/19 09:40:15;;;;;;;0.30;0.30;;;28.50;64.30;;;29.07;48.80;95326.19;5113322;28;20200;-45
2023/08/19 09:42:49;;;;;;;0.30;0.30;;;28.50;64.30;;;29.08;48.80;95322.38;5095596;28;20196;-45
2023/08/19 09:45:25;;;;;;;0.25;0.25;;;28.50;64.20;;;29.08;49.18;95314.28;5095310;28;20254;-46
2023/08/19 09:47:54;;;;;;;0.20;0.20;;;28.50;64.10;;;29.10;48.69;95322.09;5095400;28;20176;-45
2023/08/19 09:50:23;;;;;;;0.40;0.40;;;28.50;65.10;;;29.12;49.18;95317.19;5093933;28;20197;-45
2023/08/19 09:52:58;;;;;;;0.28;0.28;;;28.50;64.10;;;29.12;48.67;95316.38;5095006;28;20246;-49
2023/08/19 09:55:32;;;;;;;0.28;0.28;;;28.50;64.10;;;29.13;48.44;95321.47;5095577;28;20199;-44
2023/08/19 09:57:59;;;;;;;0.38;0.38;;;28.50;64.10;;;29.16;48.93;95311.97;5095428;28;20261;-42
2023/08/19 10:00:26;;;;;;;0.30;0.30;;;28.50;64.00;;;29.17;48.37;95317.06;5095477;28;20639;-42
2023/08/19 10:02:55;;;;;;;0.30;0.30;;;28.50;64.00;;;29.19;48.64;95317.56;5095608;28;20193;-43
2023/08/19 10:05:24;;;;;;;0.28;0.28;;;28.60;64.00;;;29.22;48.38;95319.69;5094295;28;20190;-46
2023/08/19 10:08:03;;;;;;;0.22;0.22;;;28.60;63.90;;;29.25;48.84;95320.97;5094448;28;20240;-43
2023/08/19 10:10:31;;;;;;;0.40;0.40;;;28.60;63.80;;;29.27;48.81;95313.34;5095746;28;20260;-43
2023/08/19 10:13:01;;;;;;;0.40;0.40;;;28.60;63.80;;;29.29;48.24;95313.06;5094333;28;20298;-43
2023/08/19 10:15:33;;;;;;;0.20;0.20;;;28.70;63.80;;;29.32;48.59;95312.50;5096362;28;20633;-43
2023/08/19 10:18:25;;;;;;;0.20;0.20;;;28.70;63.70;;;29.30;48.60;95318.19;5109347;28;20230;-44
2023/08/19 10:21:00;;;;;;;0.20;0.20;;;28.70;63.50;;;29.34;47.76;95304.88;5114718;28;20252;-42
2023/08/19 10:23:29;;;;;;;0.25;0.25;;;28.70;63.50;;;29.35;47.78;95309.19;5097442;28;20179;-45
2023/08/19 10:25:58;;;;;;;0.30;0.30;;;28.70;63.50;;;29.38;48.34;95305.88;5116153;28;20213;-45
2023/08/19 10:28:29;;;;;;;0.40;0.40;;;28.80;63.50;;;29.40;48.23;95306.38;5119338;28;20232;-42